Aviation Digital Data Service (ADDS)

Output produced by METARs form (0839 UTC 23 October 2014)
found at http://aviationweather.gov/adds/metars/
 
KEWR 230830Z 2309/2412 36019G28KT P6SM BKN020 
     TEMPO 2309/2311 5SM -RA BR BKN012 
     FM231100 36018G28KT 6SM BR VCSH BKN015 
     FM231400 34018G28KT P6SM VCSH BKN015 
     FM231800 33018G26KT P6SM BKN025 OVC035 
     FM232200 33016G23KT P6SM BKN040 BKN080 
     FM240400 33014G20KT P6SM BKN050 BKN080